createdAt,value
2022-10-11T00:00:54.177Z,88.12
2022-10-11T00:01:54.111Z,88.22
2022-10-11T00:02:54.110Z,88.32
2022-10-11T00:03:54.071Z,88.43
2022-10-11T00:04:54.073Z,88.43
2022-10-11T00:05:54.058Z,88.43
2022-10-11T00:06:54.052Z,88.43
2022-10-11T00:07:54.030Z,88.32
2022-10-11T00:08:54.013Z,88.43
2022-10-11T00:09:53.993Z,88.43
2022-10-11T00:10:54.011Z,88.26
2022-10-11T00:11:53.973Z,88.22
2022-10-11T00:12:53.964Z,88.37
2022-10-11T00:13:53.953Z,88.47
2022-10-11T00:14:53.938Z,88.67
2022-10-11T00:15:53.921Z,88.78
2022-10-11T00:16:53.920Z,88.98
2022-10-11T00:17:53.896Z,89.12
2022-10-11T00:18:53.883Z,89.23
2022-10-11T00:19:53.851Z,89.32
2022-10-11T00:20:53.843Z,89.32
2022-10-11T00:21:53.852Z,89.32
2022-10-11T00:22:53.830Z,89.32
2022-10-11T00:23:53.815Z,89.32
2022-10-11T00:24:53.802Z,89.32
2022-10-11T00:25:53.784Z,89.43
2022-10-11T00:26:53.791Z,89.53
2022-10-11T00:27:53.788Z,89.63
2022-10-11T00:28:53.799Z,89.78
2022-10-11T00:29:53.731Z,89.88
2022-10-11T00:30:53.722Z,89.98
2022-10-11T00:31:53.711Z,90.08
2022-10-11T00:32:53.693Z,90.08
2022-10-11T00:33:53.681Z,90.29
2022-10-11T00:34:53.680Z,90.29
2022-10-11T00:35:53.659Z,90.29
2022-10-11T00:36:53.697Z,90.33
2022-10-11T00:37:53.624Z,90.53
2022-10-11T00:38:53.614Z,90.53
2022-10-11T00:39:53.692Z,90.23
2022-10-11T00:40:53.603Z,90.12
2022-10-11T00:41:53.595Z,90.12
2022-10-11T00:42:53.581Z,90.12
2022-10-11T00:43:53.554Z,90.12
2022-10-11T00:44:53.575Z,90.23
2022-10-11T00:45:53.543Z,90.23
2022-10-11T00:46:55.826Z,90.23
2022-10-11T00:47:53.512Z,90.33
2022-10-11T00:48:53.483Z,90.43
2022-10-11T00:49:53.514Z,90.33
2022-10-11T00:50:53.442Z,90.33
2022-10-11T00:51:53.443Z,90.33
2022-10-11T00:52:53.434Z,90.47
2022-10-11T00:53:53.445Z,90.37
2022-10-11T00:54:53.403Z,90.47
2022-10-11T00:55:53.404Z,90.47
2022-10-11T00:56:53.385Z,90.58
2022-10-11T00:57:53.373Z,90.58
2022-10-11T00:58:53.363Z,90.47
2022-10-11T00:59:53.356Z,90.47
2022-10-11T01:00:53.353Z,90.58
2022-10-11T01:01:53.315Z,90.58
2022-10-11T01:02:53.337Z,90.68
2022-10-11T01:03:53.284Z,90.78
2022-10-11T01:05:11.433Z,90.92
2022-10-11T01:05:54.253Z,91.13
2022-10-11T01:06:53.243Z,91.23
2022-10-11T01:07:53.232Z,91.23
2022-10-11T01:08:53.224Z,91.33
2022-10-11T01:09:53.235Z,91.33
2022-10-11T01:10:53.204Z,91.33
2022-10-11T01:11:53.185Z,91.54
2022-10-11T01:12:53.194Z,91.54
2022-10-11T01:13:53.157Z,91.64
2022-10-11T01:14:53.153Z,91.64
2022-10-11T01:15:53.186Z,91.69
2022-10-11T01:16:53.121Z,91.78
2022-10-11T01:17:53.102Z,91.78
2022-10-11T01:18:53.097Z,91.89
2022-10-11T01:19:53.082Z,91.89
2022-10-11T01:20:53.063Z,91.99
2022-10-11T01:21:53.073Z,91.99
2022-10-11T01:22:53.024Z,92.10
2022-10-11T01:23:53.054Z,92.19
2022-10-11T01:24:53.015Z,92.19
2022-10-11T01:25:53.015Z,92.19
2022-10-11T01:26:52.985Z,92.30
2022-10-11T01:27:52.975Z,92.30
2022-10-11T01:28:53.026Z,92.30
2022-10-11T01:29:52.975Z,92.40
2022-10-11T01:30:59.981Z,92.55
2022-10-11T01:31:52.929Z,92.65
2022-10-11T01:32:52.909Z,92.75
2022-10-11T01:33:52.911Z,92.75
2022-10-11T01:34:52.890Z,92.75
2022-10-11T01:35:52.881Z,92.75
2022-10-11T01:36:52.880Z,92.85
2022-10-11T01:37:52.842Z,92.96
2022-10-11T01:38:52.834Z,93.06
2022-10-11T01:39:52.861Z,93.16
2022-10-11T01:40:52.820Z,93.26
2022-10-11T01:41:52.878Z,93.41
2022-10-11T01:42:52.781Z,93.41
2022-10-11T01:43:52.813Z,93.51
2022-10-11T01:44:52.782Z,93.62
2022-10-11T01:45:52.742Z,93.71
2022-10-11T01:46:52.735Z,93.92
2022-10-11T01:47:52.732Z,94.02
2022-10-11T01:48:52.712Z,94.12
2022-10-11T01:49:52.712Z,94.12
2022-10-11T01:50:52.685Z,94.27
2022-10-11T01:51:52.672Z,94.37
2022-10-11T01:52:52.653Z,94.48
2022-10-11T01:53:52.643Z,94.58
2022-10-11T01:55:53.602Z,94.48
2022-10-11T01:56:52.603Z,94.68
2022-10-11T01:57:52.581Z,94.68
2022-10-11T01:58:52.592Z,94.68
2022-10-11T01:59:52.572Z,94.68
2022-10-11T02:00:52.579Z,94.78
2022-10-11T02:01:52.619Z,94.68
2022-10-11T02:02:52.537Z,94.89
2022-10-11T02:03:52.514Z,94.99
2022-10-11T02:04:52.524Z,95.09
2022-10-11T02:05:52.484Z,95.29
2022-10-11T02:06:52.474Z,95.29
2022-10-11T02:07:52.463Z,95.29
2022-10-11T02:08:52.445Z,95.29
2022-10-11T02:09:52.499Z,95.50
2022-10-11T02:10:52.423Z,95.54
2022-10-11T02:11:52.474Z,95.54
2022-10-11T02:12:52.382Z,95.75
2022-10-11T02:13:52.373Z,95.95
2022-10-11T02:14:52.361Z,96.06
2022-10-11T02:15:52.353Z,96.06
2022-10-11T02:16:52.343Z,96.06
2022-10-11T02:17:52.332Z,96.26
2022-10-11T02:18:52.342Z,96.47
2022-10-11T02:19:52.304Z,96.57
2022-10-11T02:20:52.293Z,96.78
2022-10-11T02:21:52.285Z,96.78
2022-10-11T02:22:52.263Z,96.78
2022-10-11T02:23:52.253Z,96.98
2022-10-11T02:24:52.235Z,97.08
2022-10-11T02:25:52.224Z,96.98
2022-10-11T02:26:52.344Z,97.08
2022-10-11T02:27:52.208Z,97.19
2022-10-11T02:28:52.297Z,97.29
2022-10-11T02:29:52.173Z,97.39
2022-10-11T02:30:52.153Z,97.49
2022-10-11T02:31:52.161Z,97.60
2022-10-11T02:32:52.123Z,97.60
2022-10-11T02:33:52.112Z,97.70
2022-10-11T02:34:52.104Z,97.70
2022-10-11T02:35:52.095Z,97.80
2022-10-11T02:36:52.094Z,97.80
2022-10-11T02:37:52.064Z,97.80
2022-10-11T02:38:52.052Z,97.91
2022-10-11T02:39:52.044Z,97.91
2022-10-11T02:40:52.042Z,98.00
2022-10-11T02:41:52.025Z,98.00
2022-10-11T02:42:52.003Z,98.00
2022-10-11T02:43:51.992Z,98.00
2022-10-11T02:44:51.963Z,98.00
2022-10-11T02:45:51.964Z,98.00
2022-10-11T02:46:51.963Z,98.00
2022-10-11T02:47:51.943Z,98.05
2022-10-11T02:48:51.924Z,98.05
2022-10-11T02:49:51.924Z,98.25
2022-10-11T02:50:51.902Z,98.46
2022-10-11T02:51:51.893Z,98.46
2022-10-11T02:52:51.863Z,98.57
2022-10-11T02:53:51.854Z,98.57
2022-10-11T02:54:51.945Z,98.67
2022-10-11T02:55:51.854Z,98.77
2022-10-11T02:56:51.853Z,98.87
2022-10-11T02:57:51.847Z,98.87
2022-10-11T02:58:51.796Z,99.08
2022-10-11T02:59:51.782Z,99.08
2022-10-11T03:00:51.794Z,99.08
2022-10-11T03:01:51.808Z,99.08
2022-10-11T03:02:51.735Z,99.18
2022-10-11T03:03:51.725Z,99.28
2022-10-11T03:04:51.706Z,99.28
2022-10-11T03:05:51.703Z,99.18
2022-10-11T03:06:51.684Z,99.18
2022-10-11T03:07:51.684Z,99.18
2022-10-11T03:08:51.662Z,99.08
2022-10-11T03:09:51.650Z,99.08
2022-10-11T03:10:51.712Z,99.08
2022-10-11T03:11:51.614Z,99.18
2022-10-11T03:12:51.615Z,99.18
2022-10-11T03:13:51.648Z,99.22
2022-10-11T03:14:51.576Z,99.28
2022-10-11T03:16:02.232Z,99.28
2022-10-11T03:16:52.565Z,99.18
2022-10-11T03:17:51.546Z,99.22
2022-10-11T03:18:51.544Z,99.22
2022-10-11T03:19:51.516Z,99.22
2022-10-11T03:20:51.505Z,99.22
2022-10-11T03:21:51.495Z,99.22
2022-10-11T03:22:51.498Z,99.33
2022-10-11T03:23:51.465Z,99.33
2022-10-11T03:24:51.634Z,99.43
2022-10-11T03:25:51.432Z,99.43
2022-10-11T03:26:51.414Z,99.54
2022-10-11T03:27:51.411Z,99.63
2022-10-11T03:28:51.437Z,99.63
2022-10-11T03:29:51.374Z,99.63
2022-10-11T03:30:51.375Z,99.63
2022-10-11T03:31:51.366Z,99.63
2022-10-11T03:32:51.355Z,99.63
2022-10-11T03:33:51.337Z,99.54
2022-10-11T03:34:51.325Z,99.54
2022-10-11T03:35:51.366Z,99.54
2022-10-11T03:36:51.296Z,99.54
2022-10-11T03:37:51.287Z,99.54
2022-10-11T03:38:51.255Z,99.54
2022-10-11T03:39:51.334Z,99.54
2022-10-11T03:40:51.234Z,99.49
2022-10-11T03:41:51.255Z,99.49
2022-10-11T03:42:51.204Z,99.38
2022-10-11T03:43:51.194Z,99.28
2022-10-11T03:44:51.183Z,99.28
2022-10-11T03:45:51.185Z,99.33
2022-10-11T03:46:51.166Z,99.22
2022-10-11T03:47:51.174Z,99.33
2022-10-11T03:48:51.137Z,99.33
2022-10-11T03:49:51.127Z,99.43
2022-10-11T03:50:51.120Z,99.43
2022-10-11T03:51:51.102Z,99.43
2022-10-11T03:52:51.083Z,99.43
2022-10-11T03:53:51.077Z,99.43
2022-10-11T03:54:51.067Z,99.43
2022-10-11T03:55:51.046Z,99.33
2022-10-11T03:56:51.036Z,99.33
2022-10-11T03:57:51.043Z,99.33
2022-10-11T03:58:51.005Z,99.33
2022-10-11T03:59:50.996Z,99.33
2022-10-11T04:00:50.992Z,99.43
2022-10-11T04:01:51.017Z,99.33
2022-10-11T04:02:50.946Z,99.28
2022-10-11T04:03:50.946Z,99.18
2022-10-11T04:04:50.925Z,99.22
2022-10-11T04:05:50.918Z,99.22
2022-10-11T04:06:50.905Z,99.28
2022-10-11T04:07:50.982Z,99.18
2022-10-11T04:08:50.873Z,99.22
2022-10-11T04:09:50.925Z,99.12
2022-10-11T04:10:50.847Z,99.12
2022-10-11T04:11:50.835Z,99.22
2022-10-11T04:12:50.839Z,99.22
2022-10-11T04:13:51.066Z,99.22
2022-10-11T04:14:50.795Z,99.33
2022-10-11T04:15:50.787Z,99.43
2022-10-11T04:16:50.767Z,99.54
2022-10-11T04:17:50.757Z,99.68
2022-10-11T04:18:50.776Z,99.74
2022-10-11T04:19:50.736Z,99.74
2022-10-11T04:20:50.722Z,99.89
2022-10-11T04:21:50.705Z,99.89
2022-10-11T04:22:50.675Z,99.89
2022-10-11T04:23:50.664Z,99.99
2022-10-11T04:24:50.707Z,99.99
2022-10-11T04:25:50.667Z,99.99
2022-10-11T04:26:50.636Z,99.99
2022-10-11T04:27:50.637Z,99.99
2022-10-11T04:28:50.684Z,99.99
2022-10-11T04:29:50.607Z,99.99
2022-10-11T04:30:50.606Z,99.99
2022-10-11T04:31:50.578Z,99.99
2022-10-11T04:32:50.569Z,99.99
2022-10-11T04:33:50.557Z,99.99
2022-10-11T04:34:50.525Z,99.99
2022-10-11T04:35:50.608Z,99.99
2022-10-11T04:36:50.497Z,99.99
2022-10-11T04:37:50.526Z,99.99
2022-10-11T04:38:50.506Z,99.99
2022-10-11T04:39:50.464Z,99.99
2022-10-11T04:40:50.486Z,99.99
2022-10-11T04:41:50.445Z,99.99
2022-10-11T04:42:50.436Z,99.99
2022-10-11T04:43:50.417Z,99.99
2022-10-11T04:44:50.406Z,99.99
2022-10-11T04:45:55.237Z,99.99
2022-10-11T04:46:51.397Z,99.99
2022-10-11T04:47:50.368Z,99.99
2022-10-11T04:48:50.361Z,99.99
2022-10-11T04:49:50.379Z,99.99
2022-10-11T04:50:50.314Z,99.99
2022-10-11T04:51:50.315Z,99.99
2022-10-11T04:52:50.306Z,99.99
2022-10-11T04:53:50.284Z,99.99
2022-10-11T04:54:50.297Z,99.99
2022-10-11T04:55:50.259Z,99.99
2022-10-11T04:56:50.247Z,99.99
2022-10-11T04:57:50.258Z,99.99
2022-10-11T04:58:50.252Z,99.99
2022-10-11T04:59:50.517Z,99.99
2022-10-11T05:00:50.226Z,99.99
2022-10-11T05:01:50.274Z,99.99
2022-10-11T05:02:50.159Z,99.99
2022-10-11T05:03:50.176Z,99.99
2022-10-11T05:04:50.142Z,99.99
2022-10-11T05:05:50.194Z,99.99
2022-10-11T05:06:50.117Z,99.99
2022-10-11T05:07:50.145Z,99.99
2022-10-11T05:08:50.107Z,99.99
2022-10-11T05:09:50.078Z,99.99
2022-10-11T05:10:50.128Z,99.99
2022-10-11T05:11:50.057Z,99.87
2022-10-11T05:12:50.088Z,99.87
2022-10-11T05:13:50.098Z,99.71
2022-10-11T05:14:50.004Z,99.81
2022-10-11T05:15:49.986Z,99.91
2022-10-11T05:16:49.977Z,99.97
2022-10-11T05:17:49.960Z,99.87
2022-10-11T05:18:50.020Z,99.87
2022-10-11T05:19:49.937Z,99.66
2022-10-11T05:20:49.941Z,99.71
2022-10-11T05:21:49.909Z,99.40
2022-10-11T05:22:50.029Z,99.77
2022-10-11T05:23:49.901Z,99.99
2022-10-11T05:24:50.449Z,99.99
2022-10-11T05:25:50.330Z,99.99
2022-10-11T05:26:49.858Z,99.99
2022-10-11T05:27:50.648Z,99.97
2022-10-11T05:28:49.894Z,99.77
2022-10-11T05:29:49.813Z,99.77
2022-10-11T05:30:49.818Z,99.56
2022-10-11T05:31:50.585Z,99.51
2022-10-11T05:32:49.817Z,99.30
2022-10-11T05:33:49.757Z,99.09
2022-10-11T05:34:49.754Z,99.09
2022-10-11T05:35:49.775Z,99.09
2022-10-11T05:36:49.718Z,98.88
2022-10-11T05:37:49.706Z,98.88
2022-10-11T05:38:49.701Z,98.68
2022-10-11T05:39:49.687Z,98.47
2022-10-11T05:40:49.733Z,98.47
2022-10-11T05:41:49.669Z,98.37
2022-10-11T05:42:49.651Z,98.27
2022-10-11T05:43:49.680Z,98.16
2022-10-11T05:44:49.648Z,98.27
2022-10-11T05:45:49.617Z,98.27
2022-10-11T05:46:49.616Z,98.27
2022-10-11T05:47:49.596Z,98.16
2022-10-11T05:48:49.631Z,99.35
2022-10-11T05:49:49.566Z,99.66
2022-10-11T05:50:49.547Z,99.56
2022-10-11T05:51:49.537Z,99.35
2022-10-11T05:52:49.516Z,99.30
2022-10-11T05:53:49.508Z,99.19
2022-10-11T05:54:49.500Z,98.99
2022-10-11T05:55:49.480Z,98.79
2022-10-11T05:56:49.468Z,98.79
2022-10-11T05:57:49.469Z,98.68
2022-10-11T05:58:49.435Z,98.58
2022-10-11T05:59:49.417Z,98.68
2022-10-11T06:00:49.407Z,98.63
2022-10-11T06:01:49.503Z,98.63
2022-10-11T06:02:49.409Z,98.43
2022-10-11T06:03:49.401Z,98.12
2022-10-11T06:04:49.418Z,97.71
2022-10-11T06:05:53.183Z,97.61
2022-10-11T06:06:50.350Z,97.50
2022-10-11T06:07:49.319Z,97.30
2022-10-11T06:08:49.316Z,97.30
2022-10-11T06:09:49.309Z,97.30
2022-10-11T06:10:49.276Z,97.30
2022-10-11T06:11:49.258Z,97.40
2022-10-11T06:12:49.254Z,97.50
2022-10-11T06:13:49.236Z,97.50
2022-10-11T06:14:49.248Z,97.50
2022-10-11T06:15:49.207Z,97.61
2022-10-11T06:16:49.236Z,97.71
2022-10-11T06:17:49.179Z,97.71
2022-10-11T06:18:49.218Z,97.66
2022-10-11T06:19:49.178Z,97.77
2022-10-11T06:20:49.190Z,97.66
2022-10-11T06:21:49.139Z,97.77
2022-10-11T06:22:49.128Z,97.77
2022-10-11T06:23:49.118Z,97.87
2022-10-11T06:24:49.106Z,97.87
2022-10-11T06:25:49.089Z,97.62
2022-10-11T06:26:49.083Z,97.52
2022-10-11T06:27:49.047Z,97.41
2022-10-11T06:28:49.235Z,97.41
2022-10-11T06:29:49.028Z,97.52
2022-10-11T06:30:49.020Z,97.62
2022-10-11T06:31:49.006Z,97.67
2022-10-11T06:32:48.996Z,97.57
2022-10-11T06:33:48.979Z,97.47
2022-10-11T06:34:48.980Z,97.16
2022-10-11T06:35:48.959Z,97.16
2022-10-11T06:36:48.958Z,97.16
2022-10-11T06:37:48.930Z,97.02
2022-10-11T06:38:48.928Z,97.22
2022-10-11T06:39:48.908Z,97.32
2022-10-11T06:40:48.898Z,97.32
2022-10-11T06:41:48.869Z,97.32
2022-10-11T06:42:48.877Z,97.42
2022-10-11T06:43:48.848Z,97.42
2022-10-11T06:44:48.859Z,97.48
2022-10-11T06:45:48.825Z,97.48
2022-10-11T06:46:48.836Z,97.58
2022-10-11T06:47:48.799Z,97.58
2022-10-11T06:48:48.798Z,97.48
2022-10-11T06:49:48.774Z,97.33
2022-10-11T06:50:59.570Z,97.23
2022-10-11T06:51:49.746Z,97.23
2022-10-11T06:52:48.749Z,97.13
2022-10-11T06:53:48.719Z,96.92
2022-10-11T06:54:48.710Z,96.67
2022-10-11T06:55:48.697Z,96.57
2022-10-11T06:56:48.711Z,96.47
2022-10-11T06:57:48.680Z,96.26
2022-10-11T06:58:48.666Z,96.16
2022-10-11T06:59:48.637Z,96.37
2022-10-11T07:00:48.676Z,96.42
2022-10-11T07:01:48.705Z,96.53
2022-10-11T07:02:48.610Z,96.63
2022-10-11T07:03:48.630Z,96.63
2022-10-11T07:04:48.581Z,96.48
2022-10-11T07:05:48.571Z,96.17
2022-10-11T07:06:48.549Z,95.87
2022-10-11T07:07:48.546Z,95.56
2022-10-11T07:08:48.528Z,95.21
2022-10-11T07:09:48.568Z,95.00
2022-10-11T07:10:48.594Z,94.90
2022-10-11T07:11:48.479Z,94.70
2022-10-11T07:12:48.489Z,94.70
2022-10-11T07:13:48.476Z,94.55
2022-10-11T07:14:48.458Z,94.04
2022-10-11T07:15:48.454Z,93.73
2022-10-11T07:16:48.435Z,93.73
2022-10-11T07:17:48.461Z,93.63
2022-10-11T07:18:48.410Z,93.52
2022-10-11T07:19:48.391Z,93.52
2022-10-11T07:20:48.372Z,93.32
2022-10-11T07:21:48.350Z,92.87
2022-10-11T07:22:48.339Z,92.77
2022-10-11T07:23:48.329Z,92.56
2022-10-11T07:24:48.316Z,92.56
2022-10-11T07:25:48.309Z,92.56
2022-10-11T07:26:48.299Z,92.46
2022-10-11T07:27:48.278Z,92.25
2022-10-11T07:28:48.362Z,92.36
2022-10-11T07:29:48.265Z,91.74
2022-10-11T07:30:48.249Z,91.95
2022-10-11T07:31:48.322Z,91.91
2022-10-11T07:32:48.218Z,91.60
2022-10-11T07:33:48.194Z,91.60
2022-10-11T07:34:48.208Z,91.50
2022-10-11T07:35:48.654Z,91.19
2022-10-11T07:36:48.162Z,90.94
2022-10-11T07:37:48.151Z,90.53
2022-10-11T07:38:48.130Z,90.12
2022-10-11T07:39:48.110Z,90.02
2022-10-11T07:40:48.117Z,89.92
2022-10-11T07:41:48.098Z,89.97
2022-10-11T07:42:48.089Z,89.97
2022-10-11T07:43:48.059Z,90.17
2022-10-11T07:44:48.059Z,90.27
2022-10-11T07:45:48.030Z,90.33
2022-10-11T07:46:48.030Z,90.23
2022-10-11T07:47:48.021Z,89.72
2022-10-11T07:48:48.021Z,89.72
2022-10-11T07:49:48.031Z,89.82
2022-10-11T07:50:47.985Z,89.58
2022-10-11T07:51:47.972Z,89.11
2022-10-11T07:52:47.951Z,89.06
2022-10-11T07:53:47.932Z,88.85
2022-10-11T07:54:47.920Z,89.17
2022-10-11T07:55:47.913Z,89.06
2022-10-11T07:56:47.890Z,88.85
2022-10-11T07:57:47.932Z,88.55
2022-10-11T07:58:47.875Z,88.70
2022-10-11T07:59:50.214Z,88.96
2022-10-11T08:00:47.839Z,88.65
2022-10-11T08:01:47.915Z,88.65
2022-10-11T08:02:47.844Z,89.06
2022-10-11T08:03:47.812Z,89.06
2022-10-11T08:04:47.803Z,88.45
2022-10-11T08:05:47.782Z,88.24
2022-10-11T08:06:52.494Z,88.35
2022-10-11T08:07:48.769Z,88.45
2022-10-11T08:08:47.741Z,87.94
2022-10-11T08:09:47.728Z,88.20
2022-10-11T08:10:47.722Z,88.31
2022-10-11T08:11:47.702Z,87.49
2022-10-11T08:12:47.718Z,87.38
2022-10-11T08:13:47.674Z,87.18
2022-10-11T08:14:47.744Z,86.98
2022-10-11T08:15:47.643Z,86.88
2022-10-11T08:16:47.654Z,86.88
2022-10-11T08:17:47.633Z,86.67
2022-10-11T08:18:47.622Z,86.06
2022-10-11T08:19:47.602Z,86.16
2022-10-11T08:20:47.582Z,86.57
2022-10-11T08:21:47.582Z,86.36
2022-10-11T08:22:47.560Z,86.57
2022-10-11T08:23:47.561Z,86.43
2022-10-11T08:24:47.571Z,86.22
2022-10-11T08:25:47.524Z,86.12
2022-10-11T08:26:47.514Z,85.92
2022-10-11T08:27:47.504Z,86.16
2022-10-11T08:28:47.511Z,85.92
2022-10-11T08:29:47.464Z,85.92
2022-10-11T08:30:47.475Z,85.92
2022-10-11T08:31:47.630Z,85.61
2022-10-11T08:32:47.437Z,85.37
2022-10-11T08:33:47.414Z,84.96
2022-10-11T08:34:47.412Z,85.16
2022-10-11T08:35:47.389Z,84.75
2022-10-11T08:36:47.391Z,84.66
2022-10-11T08:37:47.371Z,84.04
2022-10-11T08:38:47.354Z,84.14
2022-10-11T08:39:47.332Z,84.25
2022-10-11T08:40:47.332Z,84.14
2022-10-11T08:41:47.316Z,84.04
2022-10-11T08:42:47.334Z,83.84
2022-10-11T08:43:47.307Z,83.63
2022-10-11T08:45:48.287Z,83.70
2022-10-11T08:46:47.255Z,83.49
2022-10-11T08:47:47.238Z,83.49
2022-10-11T08:48:47.234Z,82.98
2022-10-11T08:49:47.229Z,82.68
2022-10-11T08:50:47.193Z,82.47
2022-10-11T08:51:47.212Z,82.23
2022-10-11T08:52:47.163Z,82.23
2022-10-11T08:53:47.143Z,81.52
2022-10-11T08:54:47.154Z,81.72
2022-10-11T08:55:47.114Z,81.58
2022-10-11T08:56:47.111Z,81.07
2022-10-11T08:57:47.113Z,81.58
2022-10-11T08:58:47.095Z,80.66
2022-10-11T08:59:47.076Z,80.77
2022-10-11T09:00:47.067Z,80.66
2022-10-11T09:01:47.082Z,80.36
2022-10-11T09:03:07.455Z,80.36
2022-10-11T09:03:48.028Z,80.22
2022-10-11T09:04:47.015Z,79.81
2022-10-11T09:05:47.005Z,79.50
2022-10-11T09:06:46.973Z,79.47
2022-10-11T09:07:46.974Z,78.66
2022-10-11T09:08:46.945Z,78.35
2022-10-11T09:09:46.957Z,78.35
2022-10-11T09:10:46.955Z,78.35
2022-10-11T09:11:46.944Z,78.66
2022-10-11T09:12:47.004Z,78.25
2022-10-11T09:13:46.876Z,78.01
2022-10-11T09:14:46.869Z,77.50
2022-10-11T09:15:46.868Z,77.70
2022-10-11T09:16:46.845Z,77.29
2022-10-11T09:17:46.837Z,77.70
2022-10-11T09:18:46.827Z,76.79
2022-10-11T09:19:46.915Z,76.65
2022-10-11T09:20:46.807Z,76.45
2022-10-11T09:21:46.789Z,76.34
2022-10-11T09:22:46.762Z,75.23
2022-10-11T09:23:46.766Z,76.04
2022-10-11T09:24:46.981Z,75.63
2022-10-11T09:25:46.727Z,75.02
2022-10-11T09:26:46.705Z,74.82
2022-10-11T09:28:03.486Z,75.02
2022-10-11T09:28:47.751Z,74.31
2022-10-11T09:29:46.696Z,74.52
2022-10-11T09:30:46.659Z,73.80
2022-10-11T09:31:46.656Z,73.91
2022-10-11T09:32:46.639Z,74.01
2022-10-11T09:33:46.639Z,73.91
2022-10-11T09:34:46.627Z,74.11
2022-10-11T09:35:46.599Z,74.38
2022-10-11T09:36:46.579Z,74.18
2022-10-11T09:37:46.579Z,73.87
2022-10-11T09:38:46.608Z,73.46
2022-10-11T09:39:46.597Z,73.63
2022-10-11T09:40:46.588Z,73.22
2022-10-11T09:41:46.529Z,73.53
2022-10-11T09:42:46.499Z,74.24
2022-10-11T09:43:46.488Z,72.82
2022-10-11T09:44:46.467Z,72.55
2022-10-11T09:45:49.407Z,72.82
2022-10-11T09:46:46.467Z,72.11
2022-10-11T09:47:46.439Z,72.04
2022-10-11T09:48:46.450Z,72.45
2022-10-11T09:49:46.466Z,73.09
2022-10-11T09:50:46.400Z,73.30
2022-10-11T09:51:46.418Z,73.09
2022-10-11T09:52:46.377Z,73.30
2022-10-11T09:53:46.371Z,73.06
2022-10-11T09:54:46.340Z,73.16
2022-10-11T09:55:46.392Z,73.46
2022-10-11T09:56:46.312Z,72.14
2022-10-11T09:57:46.346Z,71.64
2022-10-11T09:58:46.290Z,72.25
2022-10-11T09:59:46.279Z,71.70
2022-10-11T10:00:46.260Z,72.08
2022-10-11T10:01:46.299Z,71.16
2022-10-11T10:02:46.261Z,70.76
2022-10-11T10:03:46.240Z,70.45
2022-10-11T10:04:46.219Z,70.55
2022-10-11T10:05:46.210Z,70.76
2022-10-11T10:06:46.208Z,70.62
2022-10-11T10:07:46.193Z,70.21
2022-10-11T10:08:46.172Z,70.21
2022-10-11T10:09:46.193Z,69.57
2022-10-11T10:10:46.134Z,69.37
2022-10-11T10:11:46.120Z,68.76
2022-10-11T10:12:46.100Z,68.32
2022-10-11T10:13:46.118Z,68.52
2022-10-11T10:14:46.090Z,66.30
2022-10-11T10:15:46.071Z,65.69
2022-10-11T10:16:46.062Z,66.23
2022-10-11T10:17:46.062Z,66.63
2022-10-11T10:18:46.036Z,66.46
2022-10-11T10:19:46.029Z,66.86
2022-10-11T10:20:46.001Z,67.07
2022-10-11T10:21:46.003Z,67.50
2022-10-11T10:22:45.979Z,67.71
2022-10-11T10:23:46.108Z,67.71
2022-10-11T10:24:45.959Z,67.41
2022-10-11T10:25:46.021Z,68.08
2022-10-11T10:26:45.924Z,66.46
2022-10-11T10:27:45.920Z,65.24
2022-10-11T10:28:46.018Z,64.03
2022-10-11T10:29:45.914Z,64.53
2022-10-11T10:30:45.874Z,65.27
2022-10-11T10:32:09.325Z,65.27
2022-10-11T10:32:48.665Z,65.68
2022-10-11T10:33:45.835Z,65.58
2022-10-11T10:34:45.852Z,65.88
2022-10-11T10:35:45.814Z,65.55
2022-10-11T10:36:45.801Z,65.65
2022-10-11T10:37:45.781Z,64.40
2022-10-11T10:38:49.874Z,64.03
2022-10-11T10:39:46.772Z,64.61
2022-10-11T10:40:45.793Z,64.70
2022-10-11T10:41:45.853Z,64.91
2022-10-11T10:42:45.713Z,64.33
2022-10-11T10:43:45.713Z,64.53
2022-10-11T10:44:45.780Z,63.89
2022-10-11T10:45:45.683Z,63.89
2022-10-11T10:46:45.674Z,63.35
2022-10-11T10:47:45.655Z,63.26
2022-10-11T10:49:23.641Z,63.35
2022-10-11T10:49:54.259Z,63.53
2022-10-11T10:50:46.622Z,62.21
2022-10-11T10:51:45.698Z,62.21
2022-10-11T10:52:45.576Z,61.40
2022-10-11T10:53:45.574Z,61.91
2022-10-11T10:54:45.582Z,60.79
2022-10-11T10:55:45.565Z,59.14
2022-10-11T10:56:45.535Z,59.17
2022-10-11T10:57:45.516Z,59.07
2022-10-11T10:58:45.515Z,59.68
2022-10-11T10:59:45.497Z,60.08
2022-10-11T11:00:45.515Z,60.08
2022-10-11T11:01:45.527Z,60.16
2022-10-11T11:02:45.594Z,60.26
2022-10-11T11:03:45.447Z,59.72
2022-10-11T11:04:45.510Z,59.75
2022-10-11T11:05:45.450Z,59.95
2022-10-11T11:06:45.405Z,60.06
2022-10-11T11:07:45.387Z,59.55
2022-10-11T11:08:45.374Z,59.65
2022-10-11T11:09:45.356Z,59.68
2022-10-11T11:10:45.528Z,60.59
2022-10-11T11:11:45.376Z,60.77
2022-10-11T11:12:45.315Z,61.20
2022-10-11T11:13:45.315Z,61.91
2022-10-11T11:14:45.300Z,62.18
2022-10-11T11:15:45.290Z,62.08
2022-10-11T11:16:45.299Z,61.75
2022-10-11T11:17:45.289Z,61.35
2022-10-11T11:18:45.227Z,61.14
2022-10-11T11:19:45.274Z,60.57
2022-10-11T11:20:45.206Z,61.30
2022-10-11T11:21:45.368Z,62.01
2022-10-11T11:22:45.289Z,61.91
2022-10-11T11:23:45.206Z,62.29
2022-10-11T11:24:45.169Z,62.18
2022-10-11T11:25:45.312Z,61.78
2022-10-11T11:26:45.139Z,61.47
2022-10-11T11:27:45.149Z,61.60
2022-10-11T11:28:45.223Z,61.10
2022-10-11T11:29:45.154Z,61.30
2022-10-11T11:30:45.078Z,61.43
2022-10-11T11:31:45.077Z,61.74
2022-10-11T11:32:45.933Z,62.04
2022-10-11T11:33:48.708Z,62.11
2022-10-11T11:34:45.038Z,61.88
2022-10-11T11:35:45.019Z,61.27
2022-10-11T11:36:45.048Z,60.53
2022-10-11T11:37:44.998Z,60.03
2022-10-11T11:38:45.013Z,60.23
2022-10-11T11:39:44.989Z,59.49
2022-10-11T11:40:44.962Z,59.39
2022-10-11T11:41:44.971Z,60.17
2022-10-11T11:42:44.932Z,58.25
2022-10-11T11:43:44.924Z,58.05
2022-10-11T11:44:44.961Z,58.48
2022-10-11T11:45:44.922Z,58.81
2022-10-11T11:46:44.867Z,59.12
2022-10-11T11:47:44.859Z,60.03
2022-10-11T11:48:44.840Z,60.06
2022-10-11T11:50:44.822Z,60.97
2022-10-11T11:51:44.851Z,60.26
2022-10-11T11:52:44.807Z,60.08
2022-10-11T11:53:44.791Z,60.28
2022-10-11T11:54:44.772Z,60.82
2022-10-11T11:55:44.762Z,61.43
2022-10-11T11:56:44.773Z,61.87
2022-10-11T11:57:44.770Z,62.27
2022-10-11T11:58:44.725Z,62.45
2022-10-11T11:59:44.715Z,62.57
2022-10-11T12:00:44.713Z,62.95
2022-10-11T12:01:44.778Z,62.68
2022-10-11T12:02:44.694Z,61.87
2022-10-11T12:03:44.832Z,62.07
2022-10-11T12:04:44.683Z,62.57
2022-10-11T12:05:44.662Z,62.51
2022-10-11T12:07:11.226Z,62.68
2022-10-11T12:07:45.629Z,63.08
2022-10-11T12:08:44.583Z,63.29
2022-10-11T12:09:44.590Z,63.29
2022-10-11T12:10:44.574Z,63.29
2022-10-11T12:11:44.577Z,63.39
2022-10-11T12:12:44.542Z,64.30
2022-10-11T12:13:44.525Z,63.59
2022-10-11T12:14:44.515Z,63.39
2022-10-11T12:15:44.506Z,63.29
2022-10-11T12:16:44.503Z,63.18
2022-10-11T12:17:44.475Z,63.79
2022-10-11T12:18:44.466Z,63.29
2022-10-11T12:19:44.452Z,64.00
2022-10-11T12:20:44.484Z,63.79
2022-10-11T12:21:44.423Z,63.59
2022-10-11T12:22:44.426Z,64.58
2022-10-11T12:23:44.433Z,62.75
2022-10-11T12:24:44.384Z,62.75
2022-10-11T12:25:44.395Z,62.92
2022-10-11T12:26:44.431Z,62.72
2022-10-11T12:27:44.354Z,62.59
2022-10-11T12:28:44.378Z,61.78
2022-10-11T12:29:44.362Z,62.05
2022-10-11T12:30:44.305Z,60.03
2022-10-11T12:31:46.201Z,59.63
2022-10-11T12:32:44.299Z,58.99
2022-10-11T12:33:44.265Z,58.25
2022-10-11T12:34:44.311Z,56.53
2022-10-11T12:35:44.237Z,56.73
2022-10-11T12:36:44.237Z,56.63
2022-10-11T12:37:44.217Z,57.24
2022-10-11T12:38:44.207Z,57.54
2022-10-11T12:39:44.187Z,57.62
2022-10-11T12:40:44.178Z,57.31
2022-10-11T12:41:44.167Z,56.58
2022-10-11T12:42:44.136Z,57.49
2022-10-11T12:43:44.146Z,56.78
2022-10-11T12:44:44.133Z,56.78
2022-10-11T12:45:44.125Z,56.78
2022-10-11T12:46:44.077Z,57.89
2022-10-11T12:47:44.172Z,56.65
2022-10-11T12:48:44.055Z,55.65
2022-10-11T12:49:44.056Z,55.87
2022-10-11T12:50:44.048Z,55.36
2022-10-11T12:51:44.108Z,54.89
2022-10-11T12:52:44.009Z,55.49
2022-10-11T12:53:43.998Z,55.80
2022-10-11T12:54:43.979Z,56.00
2022-10-11T12:55:44.805Z,56.71